createdAt,value
2018-04-13T00:00:06.534Z,14.02
2018-04-13T00:02:34.054Z,14.85
2018-04-13T00:05:01.591Z,12.73
2018-04-13T00:07:29.123Z,13.95
2018-04-13T00:09:56.639Z,13.73
2018-04-13T00:12:24.191Z,14.18
2018-04-13T00:14:51.695Z,15.27
2018-04-13T00:17:19.716Z,15.40
2018-04-13T00:19:47.255Z,17.02
2018-04-13T00:22:14.770Z,14.32
2018-04-13T00:24:42.279Z,15.15
2018-04-13T00:27:09.924Z,13.62
2018-04-13T00:29:37.435Z,15.40
2018-04-13T00:32:04.944Z,13.40
2018-04-13T00:34:32.494Z,14.45
2018-04-13T00:37:00.010Z,13.60
2018-04-13T00:39:27.519Z,14.25
2018-04-13T00:41:55.360Z,15.20
2018-04-13T00:44:22.884Z,16.50
2018-04-13T00:46:50.400Z,14.50
2018-04-13T00:49:18.521Z,14.73
2018-04-13T00:51:46.113Z,15.00
2018-04-13T00:54:14.516Z,14.73
2018-04-13T00:56:43.330Z,13.75
2018-04-13T00:59:10.839Z,14.70
2018-04-13T01:01:38.351Z,15.95
2018-04-13T01:04:06.047Z,15.02
2018-04-13T01:06:33.559Z,15.30
2018-04-13T01:09:02.045Z,14.50
2018-04-13T01:11:29.595Z,14.93
2018-04-13T01:13:57.104Z,14.02
2018-04-13T01:16:24.610Z,14.15
2018-04-13T01:18:53.085Z,14.25
2018-04-13T01:21:20.601Z,12.55
2018-04-13T01:23:48.636Z,11.93
2018-04-13T01:26:16.363Z,11.65
2018-04-13T01:28:43.880Z,14.90
2018-04-13T01:31:11.384Z,14.10
2018-04-13T01:33:39.143Z,13.20
2018-04-13T01:36:07.143Z,12.40
2018-04-13T01:38:35.523Z,14.23
2018-04-13T01:41:03.461Z,13.95
2018-04-13T01:43:31.452Z,14.77
2018-04-13T01:45:58.960Z,13.35
2018-04-13T01:48:26.655Z,13.95
2018-04-13T01:50:54.182Z,12.90
2018-04-13T01:53:22.618Z,13.10
2018-04-13T01:55:50.155Z,12.80
2018-04-13T01:58:17.672Z,14.82
2018-04-13T02:00:45.178Z,15.32
2018-04-13T02:03:12.828Z,14.80
2018-04-13T02:05:40.349Z,14.23
2018-04-13T02:08:07.856Z,15.65
2018-04-13T02:10:35.603Z,17.27
2018-04-13T02:13:03.121Z,15.00
2018-04-13T02:15:30.855Z,14.32
2018-04-13T02:17:58.953Z,14.90
2018-04-13T02:20:26.612Z,15.95
2018-04-13T02:22:54.129Z,17.20
2018-04-13T02:25:21.987Z,15.43
2018-04-13T02:27:49.495Z,15.57
2018-04-13T02:30:17.008Z,16.92
2018-04-13T02:32:44.970Z,16.23
2018-04-13T02:35:12.475Z,19.58
2018-04-13T02:37:39.984Z,13.95
2018-04-13T02:40:07.743Z,10.95
2018-04-13T02:42:35.253Z,12.13
2018-04-13T02:45:02.770Z,12.15
2018-04-13T02:47:30.427Z,13.50
2018-04-13T02:49:57.939Z,12.68
2018-04-13T02:52:25.455Z,15.88
2018-04-13T02:54:53.011Z,15.52
2018-04-13T02:57:20.536Z,14.90
2018-04-13T02:59:48.052Z,13.82
2018-04-13T03:02:15.786Z,12.95
2018-04-13T03:04:43.307Z,13.85
2018-04-13T03:07:10.847Z,13.73
2018-04-13T03:09:38.391Z,14.52
2018-04-13T03:12:05.917Z,15.77
2018-04-13T03:14:33.429Z,16.33
2018-04-13T03:17:00.971Z,16.33
2018-04-13T03:19:28.477Z,17.65
2018-04-13T03:21:56.015Z,14.95
2018-04-13T03:24:23.720Z,16.42
2018-04-13T03:26:51.229Z,18.58
2018-04-13T03:29:18.743Z,16.73
2018-04-13T03:31:46.280Z,16.98
2018-04-13T03:34:13.797Z,17.58
2018-04-13T03:36:41.303Z,17.98
2018-04-13T03:39:09.075Z,16.70
2018-04-13T03:41:36.585Z,16.25
2018-04-13T03:44:04.104Z,17.87
2018-04-13T03:46:31.960Z,16.50
2018-04-13T03:48:59.474Z,17.25
2018-04-13T03:51:26.981Z,18.67
2018-04-13T03:53:54.519Z,17.35
2018-04-13T03:56:22.032Z,18.10
2018-04-13T03:58:49.545Z,17.55
2018-04-13T04:01:17.409Z,17.00
2018-04-13T04:03:44.923Z,17.10
2018-04-13T04:06:12.435Z,17.95
2018-04-13T04:08:39.991Z,17.02
2018-04-13T04:11:07.520Z,17.52
2018-04-13T04:13:35.040Z,16.58
2018-04-13T04:16:02.683Z,15.85
2018-04-13T04:18:30.195Z,18.37
2018-04-13T04:21:09.977Z,16.83
2018-04-13T04:23:49.284Z,16.90
2018-04-13T04:26:28.948Z,17.20
2018-04-13T04:28:56.485Z,20.45
2018-04-13T04:31:24.001Z,16.50
2018-04-13T04:33:51.736Z,18.02
2018-04-13T04:36:19.273Z,17.25
2018-04-13T04:38:46.819Z,18.55
2018-04-13T04:41:14.366Z,18.65
2018-04-13T04:43:42.847Z,18.17
2018-04-13T04:46:10.365Z,18.55
2018-04-13T04:48:38.138Z,18.30
2018-04-13T04:51:05.697Z,18.67
2018-04-13T04:53:33.216Z,17.65
2018-04-13T04:56:00.920Z,19.30
2018-04-13T04:58:28.506Z,19.20
2018-04-13T05:00:56.014Z,18.85
2018-04-13T05:03:23.778Z,17.30
2018-04-13T05:05:51.304Z,17.50
2018-04-13T05:08:18.834Z,18.15
2018-04-13T05:10:46.391Z,18.30
2018-04-13T05:13:13.905Z,18.65
2018-04-13T05:15:41.423Z,17.73
2018-04-13T05:18:08.976Z,17.08
2018-04-13T05:20:36.487Z,18.40
2018-04-13T05:23:04.009Z,19.15
2018-04-13T05:25:31.919Z,17.17
2018-04-13T05:27:59.431Z,18.08
2018-04-13T05:30:27.081Z,18.17
2018-04-13T05:32:54.631Z,17.65
2018-04-13T05:35:23.092Z,18.10
2018-04-13T05:37:50.612Z,16.92
2018-04-13T05:40:18.159Z,17.20
2018-04-13T05:42:45.669Z,17.10
2018-04-13T05:45:13.191Z,17.35
2018-04-13T05:47:40.737Z,19.20
2018-04-13T05:50:08.251Z,18.27
2018-04-13T05:52:35.759Z,16.60
2018-04-13T05:55:03.552Z,18.00
2018-04-13T05:57:31.065Z,18.90
2018-04-13T05:59:58.589Z,18.77
2018-04-13T06:02:26.324Z,19.40
2018-04-13T06:04:53.836Z,19.92
2018-04-13T06:07:21.339Z,17.42
2018-04-13T06:09:49.016Z,18.50
2018-04-13T06:12:16.954Z,19.77
2018-04-13T06:14:44.668Z,19.77
2018-04-13T06:17:12.268Z,19.65
2018-04-13T06:19:39.800Z,17.70
2018-04-13T06:22:08.265Z,18.25
2018-04-13T06:24:37.531Z,19.33
2018-04-13T06:27:05.049Z,19.27
2018-04-13T06:29:32.645Z,18.50
2018-04-13T06:32:00.420Z,19.23
2018-04-13T06:34:27.935Z,19.37
2018-04-13T06:36:55.529Z,18.90
2018-04-13T06:39:23.139Z,18.35
2018-04-13T06:41:50.655Z,17.90
2018-04-13T06:44:18.231Z,20.10
2018-04-13T06:46:45.983Z,18.80
2018-04-13T06:49:13.600Z,17.40
2018-04-13T06:51:41.107Z,17.27
2018-04-13T06:54:08.667Z,19.60
2018-04-13T06:56:36.211Z,17.73
2018-04-13T06:59:03.735Z,19.47
2018-04-13T07:01:31.301Z,19.20
2018-04-13T07:03:58.924Z,18.50
2018-04-13T07:06:26.479Z,17.90
2018-04-13T07:08:54.323Z,18.67
2018-04-13T07:11:23.957Z,16.80
2018-04-13T07:13:51.460Z,17.60
2018-04-13T07:16:21.772Z,16.90
2018-04-13T07:18:49.298Z,17.33
2018-04-13T07:21:17.062Z,16.60
2018-04-13T07:23:44.896Z,18.93
2018-04-13T07:26:12.452Z,16.90
2018-04-13T07:28:41.906Z,15.93
2018-04-13T07:31:09.532Z,17.27
2018-04-13T07:33:37.047Z,15.60
2018-04-13T07:36:04.562Z,15.50
2018-04-13T07:38:32.475Z,16.77
2018-04-13T07:41:00.101Z,16.70
2018-04-13T07:43:29.695Z,16.57
2018-04-13T07:45:57.983Z,15.87
2018-04-13T07:48:26.335Z,14.70
2018-04-13T07:50:54.329Z,14.50
2018-04-13T07:53:22.196Z,15.50
2018-04-13T07:55:49.707Z,15.13
2018-04-13T07:58:18.175Z,10.77
2018-04-13T08:00:46.318Z,11.83
2018-04-13T08:03:13.435Z,11.60
2018-04-13T08:05:41.811Z,13.40
2018-04-13T08:08:09.704Z,11.80
2018-04-13T08:10:37.342Z,11.77
2018-04-13T08:13:04.817Z,9.00
2018-04-13T08:15:32.424Z,7.23
2018-04-13T08:18:00.933Z,7.60
2018-04-13T08:20:28.568Z,8.67
2018-04-13T08:22:56.288Z,7.70
2018-04-13T08:25:23.811Z,7.90
2018-04-13T08:27:51.318Z,7.63
2018-04-13T08:30:20.364Z,8.37
2018-04-13T08:32:48.773Z,7.23
2018-04-13T08:35:16.291Z,6.80
2018-04-13T08:37:44.101Z,6.77
2018-04-13T08:40:11.627Z,5.67
2018-04-13T08:42:39.203Z,6.43
2018-04-13T08:45:06.748Z,6.30
2018-04-13T08:47:34.259Z,7.60
2018-04-13T08:50:01.761Z,6.07
2018-04-13T08:52:29.528Z,6.50
2018-04-13T08:54:57.040Z,6.37
2018-04-13T08:57:24.558Z,5.30
2018-04-13T08:59:52.096Z,5.67
2018-04-13T09:02:19.604Z,4.57
2018-04-13T09:04:47.103Z,4.40
2018-04-13T09:07:14.727Z,4.10
2018-04-13T09:09:42.260Z,4.03
2018-04-13T09:12:09.770Z,4.07
2018-04-13T09:14:41.039Z,3.67
2018-04-13T09:17:08.541Z,3.90
2018-04-13T09:19:36.045Z,3.63
2018-04-13T09:22:03.771Z,3.60
2018-04-13T09:24:31.272Z,3.20
2018-04-13T09:26:58.775Z,2.83
2018-04-13T09:29:26.307Z,3.33
2018-04-13T09:31:53.817Z,2.60
2018-04-13T09:34:21.344Z,2.50
2018-04-13T09:36:49.929Z,2.70
2018-04-13T09:39:17.436Z,3.03
2018-04-13T09:41:44.947Z,2.83
2018-04-13T09:44:12.570Z,2.80
2018-04-13T09:46:40.096Z,3.70
2018-04-13T09:49:07.599Z,3.23
2018-04-13T09:51:35.155Z,2.90
2018-04-13T09:54:02.663Z,3.50
2018-04-13T09:56:30.171Z,5.00
2018-04-13T09:58:57.794Z,4.87
2018-04-13T10:01:25.298Z,3.80
2018-04-13T10:04:09.026Z,4.73
2018-04-13T10:06:36.523Z,4.27
2018-04-13T10:09:04.030Z,5.10
2018-04-13T10:11:31.908Z,6.45
2018-04-13T10:13:59.449Z,4.37
2018-04-13T10:16:26.971Z,5.65
2018-04-13T10:18:54.723Z,5.50
2018-04-13T10:21:22.242Z,5.12
2018-04-13T10:23:49.747Z,5.00
2018-04-13T10:26:21.052Z,4.57
2018-04-13T10:28:48.718Z,4.82
2018-04-13T10:31:16.232Z,5.28
2018-04-13T10:33:43.811Z,5.82
2018-04-13T10:36:11.345Z,5.90
2018-04-13T10:38:38.885Z,5.60
2018-04-13T10:41:06.721Z,5.97
2018-04-13T10:43:34.231Z,5.87
2018-04-13T10:46:01.742Z,6.85
2018-04-13T10:48:29.300Z,7.40
2018-04-13T10:50:57.700Z,6.03
2018-04-13T10:53:25.669Z,6.60
2018-04-13T10:55:53.332Z,7.30
2018-04-13T10:58:20.854Z,7.12
2018-04-13T11:00:48.402Z,6.78
2018-04-13T11:03:16.216Z,6.50
2018-04-13T11:05:43.815Z,7.57
2018-04-13T11:08:11.536Z,6.90
2018-04-13T11:10:39.711Z,6.93
2018-04-13T11:13:07.243Z,6.93
2018-04-13T11:15:35.137Z,6.15
2018-04-13T11:18:03.412Z,5.18
2018-04-13T11:20:31.278Z,4.65
2018-04-13T11:22:58.847Z,5.95
2018-04-13T11:25:26.986Z,5.30
2018-04-13T11:27:54.673Z,4.65
2018-04-13T11:30:22.442Z,4.35
2018-04-13T11:32:50.408Z,4.50
2018-04-13T11:35:18.273Z,4.72
2018-04-13T11:37:46.245Z,4.50
2018-04-13T11:40:14.006Z,3.80
2018-04-13T11:42:41.867Z,2.33
2018-04-13T11:45:09.419Z,4.37
2018-04-13T11:47:37.483Z,2.58
2018-04-13T11:50:05.055Z,4.05
2018-04-13T11:52:32.724Z,3.60
2018-04-13T11:55:01.002Z,2.62
2018-04-13T11:57:28.985Z,3.20
2018-04-13T11:59:56.725Z,2.85
2018-04-13T12:02:24.311Z,2.75
2018-04-13T12:04:52.032Z,3.05
2018-04-13T12:07:19.572Z,3.22
2018-04-13T12:09:47.463Z,3.65
2018-04-13T12:12:14.992Z,3.83
2018-04-13T12:14:42.528Z,3.47
2018-04-13T12:17:10.322Z,3.62
2018-04-13T12:19:37.977Z,2.97
2018-04-13T12:22:05.487Z,3.17
2018-04-13T12:24:33.244Z,3.50
2018-04-13T12:27:00.760Z,4.60
2018-04-13T12:29:28.279Z,4.00
2018-04-13T12:31:56.030Z,6.40
2018-04-13T12:34:23.712Z,3.97
2018-04-13T12:36:51.353Z,5.65
2018-04-13T12:39:18.907Z,4.97
2018-04-13T12:41:47.393Z,4.93
2018-04-13T12:44:14.919Z,4.27
2018-04-13T12:46:42.686Z,4.30
2018-04-13T12:49:10.244Z,3.80
2018-04-13T12:51:38.040Z,4.60
2018-04-13T12:54:05.696Z,4.63
2018-04-13T12:56:33.204Z,4.00
2018-04-13T12:59:00.727Z,4.23
2018-04-13T13:01:28.739Z,5.07
2018-04-13T13:03:56.423Z,6.70
2018-04-13T13:06:24.091Z,5.53
2018-04-13T13:08:51.790Z,5.50
2018-04-13T13:11:19.540Z,5.78
2018-04-13T13:13:47.409Z,5.30
2018-04-13T13:16:15.269Z,5.20
2018-04-13T13:18:43.345Z,5.27
2018-04-13T13:21:11.210Z,5.30
2018-04-13T13:23:39.006Z,5.13
2018-04-13T13:26:06.842Z,5.47
2018-04-13T13:28:34.667Z,6.33
2018-04-13T13:31:02.678Z,5.60
2018-04-13T13:33:30.788Z,5.47
2018-04-13T13:35:58.523Z,5.43
2018-04-13T13:38:26.558Z,5.20
2018-04-13T13:40:54.335Z,5.20
2018-04-13T13:43:22.216Z,6.20
2018-04-13T13:45:49.855Z,5.65
2018-04-13T13:48:17.535Z,7.75
2018-04-13T13:50:45.279Z,6.22
2018-04-13T13:53:13.475Z,5.90
2018-04-13T13:55:41.342Z,5.50
2018-04-13T13:58:09.168Z,5.22
2018-04-13T14:00:37.177Z,3.37
2018-04-13T14:03:05.001Z,3.45
2018-04-13T14:05:33.295Z,3.40
2018-04-13T14:08:01.161Z,3.45
2018-04-13T14:10:29.052Z,4.07
2018-04-13T14:12:56.770Z,3.95
2018-04-13T14:15:24.786Z,4.80
2018-04-13T14:17:52.970Z,8.65
2018-04-13T14:20:20.735Z,3.72
2018-04-13T14:22:48.693Z,4.20
2018-04-13T14:25:16.264Z,5.07
2018-04-13T14:27:44.121Z,4.60
2018-04-13T14:30:12.193Z,8.20
2018-04-13T14:32:39.739Z,13.68
2018-04-13T14:35:07.621Z,5.22
2018-04-13T14:37:36.097Z,6.28
2018-04-13T14:40:04.580Z,7.00
2018-04-13T14:42:32.303Z,6.20
2018-04-13T14:45:00.215Z,5.53
2018-04-13T14:47:27.835Z,4.63
2018-04-13T14:49:55.533Z,6.00
2018-04-13T14:52:23.603Z,4.97
2018-04-13T14:54:51.663Z,5.40
2018-04-13T14:57:20.464Z,4.77
2018-04-13T14:59:48.614Z,5.07
2018-04-13T15:02:16.503Z,4.90
2018-04-13T15:04:44.450Z,4.17
2018-04-13T15:07:13.218Z,5.27
2018-04-13T15:09:41.085Z,4.50
2018-04-13T15:12:09.051Z,4.70
2018-04-13T15:14:37.172Z,5.20
2018-04-13T15:17:05.037Z,6.00
2018-04-13T15:19:33.007Z,5.97
2018-04-13T15:22:01.588Z,6.57
2018-04-13T15:24:29.485Z,5.83
2018-04-13T15:26:57.829Z,5.90
2018-04-13T15:29:25.902Z,4.50
2018-04-13T15:31:53.963Z,5.40
2018-04-13T15:34:23.529Z,5.40
2018-04-13T15:36:51.857Z,4.83
2018-04-13T15:39:20.236Z,4.50
2018-04-13T15:41:47.890Z,4.60
2018-04-13T15:44:15.766Z,3.50
2018-04-13T15:46:43.533Z,4.23
2018-04-13T15:49:11.294Z,6.20
2018-04-13T15:51:39.160Z,5.00
2018-04-13T15:54:06.854Z,4.03
2018-04-13T15:56:34.895Z,3.80
2018-04-13T15:59:02.985Z,3.53
2018-04-13T16:01:30.830Z,4.07
2018-04-13T16:03:58.698Z,3.70
2018-04-13T16:06:26.667Z,3.80
2018-04-13T16:08:54.533Z,3.60
2018-04-13T16:11:22.401Z,4.30
2018-04-13T16:13:50.470Z,3.90
2018-04-13T16:16:18.338Z,4.07
2018-04-13T16:18:46.165Z,4.40
2018-04-13T16:21:14.332Z,3.00
2018-04-13T16:23:42.097Z,3.30
2018-04-13T16:26:09.964Z,3.40
2018-04-13T16:28:37.587Z,4.07
2018-04-13T16:31:05.316Z,4.10
2018-04-13T16:33:33.087Z,2.90
2018-04-13T16:36:01.271Z,2.77
2018-04-13T16:38:29.033Z,3.60
2018-04-13T16:40:56.906Z,3.03
2018-04-13T16:43:25.074Z,3.67
2018-04-13T16:45:52.945Z,2.97
2018-04-13T16:48:20.601Z,3.20
2018-04-13T16:50:48.776Z,3.13
2018-04-13T16:53:16.746Z,3.17
2018-04-13T16:55:44.614Z,3.03
2018-04-13T16:58:12.892Z,2.93
2018-04-13T17:00:40.650Z,2.73
2018-04-13T17:03:08.293Z,2.53
2018-04-13T17:05:36.778Z,2.47
2018-04-13T17:08:04.763Z,2.03
2018-04-13T17:10:32.424Z,2.60
2018-04-13T17:13:01.520Z,3.23
2018-04-13T17:15:29.351Z,2.27
2018-04-13T17:17:57.117Z,2.50
2018-04-13T17:20:25.099Z,2.47
2018-04-13T17:22:53.603Z,3.50
2018-04-13T17:25:21.466Z,2.17
2018-04-13T17:27:49.844Z,2.80
2018-04-13T17:30:17.710Z,2.00
2018-04-13T17:32:45.477Z,1.93
2018-04-13T17:35:13.356Z,2.60
2018-04-13T17:37:41.212Z,2.03
2018-04-13T17:40:09.470Z,2.23
2018-04-13T17:42:37.658Z,2.20
2018-04-13T17:45:05.525Z,2.50
2018-04-13T17:47:33.390Z,2.60
2018-04-13T17:50:01.360Z,2.83
2018-04-13T17:52:29.226Z,2.80
2018-04-13T17:54:57.928Z,2.00
2018-04-13T17:57:26.310Z,1.90
2018-04-13T17:59:54.157Z,1.53
2018-04-13T18:02:22.025Z,1.80
2018-04-13T18:04:49.788Z,1.80
2018-04-13T18:07:17.655Z,1.60
2018-04-13T18:09:45.522Z,1.93
2018-04-13T18:12:14.617Z,2.20
2018-04-13T18:14:42.996Z,2.40
2018-04-13T18:17:10.662Z,3.70
2018-04-13T18:19:38.934Z,4.07
2018-04-13T18:22:06.903Z,4.60
2018-04-13T18:24:34.726Z,4.90
2018-04-13T18:27:02.921Z,4.40
2018-04-13T18:29:30.810Z,4.28
2018-04-13T18:31:58.576Z,4.18
2018-04-13T18:34:27.567Z,4.40
2018-04-13T18:36:55.441Z,4.00
2018-04-13T18:39:23.350Z,3.45
2018-04-13T18:41:51.577Z,3.60
2018-04-13T18:44:19.443Z,3.40
2018-04-13T18:46:47.317Z,3.67
2018-04-13T18:49:15.795Z,3.25
2018-04-13T18:51:43.596Z,3.60
2018-04-13T18:54:11.383Z,4.62
2018-04-13T18:56:39.392Z,5.72
2018-04-13T18:59:07.260Z,5.28
2018-04-13T19:01:35.132Z,5.50
2018-04-13T19:04:03.049Z,4.40
2018-04-13T19:06:31.064Z,4.20
2018-04-13T19:08:58.931Z,4.53
2018-04-13T19:11:27.408Z,4.10
2018-04-13T19:13:55.278Z,4.53
2018-04-13T19:16:23.246Z,5.70
2018-04-13T19:18:51.348Z,7.80
2018-04-13T19:21:19.489Z,7.65
2018-04-13T19:23:48.287Z,8.65
2018-04-13T19:26:16.258Z,9.02
2018-04-13T19:28:44.118Z,8.40
2018-04-13T19:31:12.700Z,6.60
2018-04-13T19:33:40.504Z,5.70
2018-04-13T19:36:08.329Z,6.10
2018-04-13T19:38:36.588Z,6.10
2018-04-13T19:41:04.882Z,5.60
2018-04-13T19:43:32.668Z,5.12
2018-04-13T19:46:00.512Z,5.35
2018-04-13T19:48:29.503Z,5.00
2018-04-13T19:50:58.503Z,4.68
2018-04-13T19:53:26.978Z,4.62
2018-04-13T19:55:55.228Z,3.60
2018-04-13T19:58:23.385Z,3.87
2018-04-13T20:00:51.261Z,3.35
2018-04-13T20:03:19.428Z,3.97
2018-04-13T20:05:47.437Z,3.97
2018-04-13T20:08:15.817Z,4.87
2018-04-13T20:10:43.889Z,5.78
2018-04-13T20:13:11.725Z,6.25
2018-04-13T20:15:39.991Z,5.18
2018-04-13T20:18:08.107Z,6.47
2018-04-13T20:20:37.201Z,7.05
2018-04-13T20:23:05.726Z,7.00
2018-04-13T20:25:34.857Z,5.37
2018-04-13T20:28:05.774Z,5.40
2018-04-13T20:30:34.297Z,6.30
2018-04-13T20:33:03.090Z,5.50
2018-04-13T20:35:31.952Z,5.43
2018-04-13T20:37:59.840Z,5.60
2018-04-13T20:40:27.759Z,4.65
2018-04-13T20:42:55.778Z,5.65
2018-04-13T20:45:24.129Z,4.85
2018-04-13T20:47:52.339Z,5.45
2018-04-13T20:50:20.921Z,5.18
2018-04-13T20:52:52.556Z,5.32
2018-04-13T20:55:20.953Z,5.00
2018-04-13T20:57:51.067Z,5.22
2018-04-13T21:00:19.447Z,4.10
2018-04-13T21:02:48.099Z,5.18
2018-04-13T21:05:16.074Z,5.95
2018-04-13T21:07:43.852Z,5.15
2018-04-13T21:10:11.731Z,6.37
2018-04-13T21:12:39.508Z,5.72
2018-04-13T21:15:07.059Z,4.70
2018-04-13T21:17:34.817Z,5.30
2018-04-13T21:20:02.479Z,6.30
2018-04-13T21:22:30.232Z,5.30
2018-04-13T21:24:57.991Z,6.00
2018-04-13T21:27:25.726Z,5.82
2018-04-13T21:29:53.265Z,6.53
2018-04-13T21:32:21.092Z,7.15
2018-04-13T21:34:48.655Z,6.35
2018-04-13T21:37:16.216Z,6.40
2018-04-13T21:39:43.980Z,5.68
2018-04-13T21:42:12.256Z,6.80
2018-04-13T21:44:40.122Z,6.62
2018-04-13T21:47:09.886Z,7.65
2018-04-13T21:49:37.496Z,8.15
2018-04-13T21:52:05.245Z,7.87
2018-04-13T21:54:33.310Z,9.20
2018-04-13T21:57:01.093Z,8.40
2018-04-13T21:59:28.663Z,8.73
2018-04-13T22:01:56.251Z,9.18
2018-04-13T22:04:24.077Z,9.32
2018-04-13T22:06:51.797Z,9.93
2018-04-13T22:09:19.590Z,10.50
2018-04-13T22:11:47.252Z,10.27
2018-04-13T22:14:26.677Z,9.73
2018-04-13T22:16:54.367Z,8.82
2018-04-13T22:19:22.030Z,10.32
2018-04-13T22:21:50.368Z,10.68
2018-04-13T22:24:18.070Z,9.93
2018-04-13T22:26:45.646Z,10.15
2018-04-13T22:29:13.439Z,10.52
2018-04-13T22:31:40.991Z,9.43
2018-04-13T22:34:08.923Z,12.07
2018-04-13T22:36:36.772Z,11.05
2018-04-13T22:39:04.378Z,11.12
2018-04-13T22:41:31.916Z,11.10
2018-04-13T22:43:59.641Z,10.63
2018-04-13T22:46:27.151Z,9.52
2018-04-13T22:48:54.654Z,9.45
2018-04-13T22:51:22.319Z,8.88
2018-04-13T22:53:49.828Z,10.25
2018-04-13T22:56:17.338Z,9.32
2018-04-13T22:58:45.206Z,10.02
2018-04-13T23:01:12.753Z,10.43
2018-04-13T23:03:40.263Z,11.00
2018-04-13T23:06:08.191Z,11.55
2018-04-13T23:08:35.699Z,11.07
2018-04-13T23:11:03.235Z,12.05
2018-04-13T23:13:30.863Z,11.70
2018-04-13T23:15:58.773Z,11.40
2018-04-13T23:18:26.325Z,11.40
2018-04-13T23:20:54.116Z,11.88
2018-04-13T23:23:27.324Z,11.30
2018-04-13T23:25:54.860Z,11.93
2018-04-13T23:28:22.472Z,11.25
2018-04-13T23:30:50.002Z,10.88
2018-04-13T23:33:17.564Z,12.10
2018-04-13T23:35:45.083Z,13.13
2018-04-13T23:38:12.599Z,12.02
2018-04-13T23:40:40.405Z,13.57
2018-04-13T23:43:07.979Z,14.18
2018-04-13T23:45:35.497Z,13.73
2018-04-13T23:48:03.996Z,14.82
2018-04-13T23:50:31.523Z,16.27
2018-04-13T23:52:59.333Z,12.60
2018-04-13T23:55:27.059Z,15.80
2018-04-13T23:57:54.566Z,14.73
